createdAt,value
2023-01-12T00:02:20.094Z,91.05
2023-01-12T00:04:47.189Z,91.60
2023-01-12T00:07:16.016Z,91.83
2023-01-12T00:09:43.273Z,92.09
2023-01-12T00:12:12.125Z,92.11
2023-01-12T00:14:40.110Z,91.36
2023-01-12T00:17:11.867Z,91.96
2023-01-12T00:19:40.052Z,91.71
2023-01-12T00:22:07.147Z,92.35
2023-01-12T00:24:44.609Z,92.38
2023-01-12T00:27:16.711Z,92.31
2023-01-12T00:29:44.247Z,91.86
2023-01-12T00:32:18.967Z,92.10
2023-01-12T00:34:46.139Z,92.88
2023-01-12T00:37:13.496Z,92.59
2023-01-12T00:39:45.520Z,91.90
2023-01-12T00:42:32.349Z,91.99
2023-01-12T00:45:17.961Z,92.07
2023-01-12T00:47:45.010Z,92.08
2023-01-12T00:50:11.993Z,92.70
2023-01-12T00:52:39.177Z,92.08
2023-01-12T00:55:07.102Z,92.74
2023-01-12T00:57:34.163Z,92.32
2023-01-12T01:00:01.170Z,92.60
2023-01-12T01:02:28.990Z,93.06
2023-01-12T01:04:56.624Z,92.02
2023-01-12T01:07:24.472Z,92.81
2023-01-12T01:09:52.408Z,92.48
2023-01-12T01:12:19.476Z,92.47
2023-01-12T01:14:48.489Z,92.52
2023-01-12T01:17:15.847Z,92.34
2023-01-12T01:19:43.568Z,91.74
2023-01-12T01:22:13.517Z,92.10
2023-01-12T01:24:41.653Z,92.07
2023-01-12T01:27:08.704Z,91.44
2023-01-12T01:29:35.811Z,91.40
2023-01-12T01:32:02.900Z,92.19
2023-01-12T01:34:30.030Z,92.27
2023-01-12T01:36:57.041Z,92.08
2023-01-12T01:39:24.031Z,91.86
2023-01-12T01:41:51.742Z,92.32
2023-01-12T01:44:30.909Z,91.59
2023-01-12T01:47:27.075Z,92.02
2023-01-12T01:49:59.426Z,91.88
2023-01-12T01:52:34.596Z,92.06
2023-01-12T01:55:17.735Z,91.02
2023-01-12T01:58:09.665Z,91.32
2023-01-12T02:00:39.047Z,91.12
2023-01-12T02:03:08.491Z,91.21
2023-01-12T02:05:39.604Z,90.65
2023-01-12T02:09:01.648Z,90.85
2023-01-12T02:11:48.634Z,90.13
2023-01-12T02:14:33.995Z,90.53
2023-01-12T02:17:46.792Z,90.30
2023-01-12T02:21:06.220Z,90.22
2023-01-12T02:24:16.215Z,90.38
2023-01-12T02:27:29.987Z,89.66
2023-01-12T02:30:50.589Z,89.98
2023-01-12T02:34:01.127Z,90.20
2023-01-12T02:36:58.679Z,90.62
2023-01-12T02:39:59.820Z,90.19
2023-01-12T02:42:54.369Z,90.50
2023-01-12T02:45:47.750Z,90.04
2023-01-12T02:48:47.028Z,90.41
2023-01-12T02:51:37.492Z,90.47
2023-01-12T02:54:13.278Z,91.36
2023-01-12T02:56:46.310Z,91.10
2023-01-12T02:59:29.021Z,91.18
2023-01-12T03:02:22.941Z,90.90
2023-01-12T03:04:50.462Z,91.68
2023-01-12T03:08:01.518Z,91.14
2023-01-12T03:10:48.465Z,91.25
2023-01-12T03:13:17.954Z,91.42
2023-01-12T03:15:57.511Z,90.94
2023-01-12T03:19:02.249Z,91.46
2023-01-12T03:21:37.278Z,91.12
2023-01-12T03:24:17.112Z,91.70
2023-01-12T03:26:54.953Z,91.33
2023-01-12T03:29:50.264Z,91.06
2023-01-12T03:32:20.056Z,90.77
2023-01-12T03:34:47.544Z,91.47
2023-01-12T03:37:38.408Z,90.88
2023-01-12T03:40:22.133Z,90.86
2023-01-12T03:43:15.921Z,91.21
2023-01-12T03:45:58.718Z,91.39
2023-01-12T03:49:00.764Z,90.93
2023-01-12T03:51:39.298Z,91.28
2023-01-12T03:54:10.177Z,91.63
2023-01-12T03:56:39.085Z,91.40
2023-01-12T03:59:06.603Z,91.41
2023-01-12T04:01:33.717Z,92.06
2023-01-12T04:04:01.191Z,91.82
2023-01-12T04:06:28.181Z,91.93
2023-01-12T04:08:55.361Z,92.35
2023-01-12T04:11:41.076Z,91.80
2023-01-12T04:14:08.253Z,91.07
2023-01-12T04:16:35.298Z,91.41
2023-01-12T04:19:02.347Z,91.20
2023-01-12T04:21:47.981Z,91.44
2023-01-12T04:24:15.191Z,91.57
2023-01-12T04:26:42.234Z,91.70
2023-01-12T04:29:09.240Z,92.36
2023-01-12T04:31:36.306Z,91.79
2023-01-12T04:34:03.469Z,91.13
2023-01-12T04:36:33.649Z,90.66
2023-01-12T04:39:00.636Z,90.90
2023-01-12T04:41:27.732Z,91.04
2023-01-12T04:43:55.226Z,91.64
2023-01-12T04:46:22.218Z,91.97
2023-01-12T04:48:49.291Z,91.51
2023-01-12T04:51:16.352Z,91.67
2023-01-12T04:53:43.439Z,91.85
2023-01-12T04:56:10.532Z,90.93
2023-01-12T04:58:37.677Z,92.00
2023-01-12T05:01:15.607Z,90.85
2023-01-12T05:03:43.558Z,91.73
2023-01-12T05:06:11.516Z,91.20
2023-01-12T05:08:57.827Z,91.32
2023-01-12T05:11:28.905Z,91.32
2023-01-12T05:13:57.260Z,90.51
2023-01-12T05:16:27.473Z,90.83
2023-01-12T05:18:54.692Z,90.36
2023-01-12T05:21:24.183Z,90.85
2023-01-12T05:23:53.353Z,90.13
2023-01-12T05:26:20.662Z,89.18
2023-01-12T05:28:51.653Z,89.30
2023-01-12T05:31:22.175Z,89.16
2023-01-12T05:33:49.368Z,88.97
2023-01-12T05:36:18.399Z,88.63
2023-01-12T05:38:45.470Z,87.98
2023-01-12T05:41:18.121Z,88.18
2023-01-12T05:43:54.866Z,87.37
2023-01-12T05:46:30.609Z,88.29
2023-01-12T05:48:58.836Z,87.20
2023-01-12T05:51:30.807Z,87.29
2023-01-12T05:54:00.958Z,87.16
2023-01-12T05:56:28.618Z,87.42
2023-01-12T05:59:00.274Z,87.14
2023-01-12T06:01:29.484Z,87.36
2023-01-12T06:04:04.303Z,88.04
2023-01-12T06:06:32.239Z,86.57
2023-01-12T06:09:00.991Z,87.05
2023-01-12T06:11:46.757Z,87.04
2023-01-12T06:14:14.518Z,86.80
2023-01-12T06:16:43.644Z,87.77
2023-01-12T06:19:14.375Z,86.47
2023-01-12T06:21:41.968Z,87.00
2023-01-12T06:24:09.540Z,87.06
2023-01-12T06:26:36.650Z,87.36
2023-01-12T06:29:06.756Z,86.32
2023-01-12T06:31:34.233Z,87.21
2023-01-12T06:34:01.496Z,86.31
2023-01-12T06:36:28.624Z,87.27
2023-01-12T06:38:55.646Z,86.94
2023-01-12T06:41:41.201Z,86.77
2023-01-12T06:44:08.215Z,86.21
2023-01-12T06:46:35.302Z,87.13
2023-01-12T06:49:05.543Z,87.24
2023-01-12T06:51:32.798Z,86.53
2023-01-12T06:54:01.379Z,87.44
2023-01-12T06:56:28.712Z,86.91
2023-01-12T06:58:55.801Z,86.10
2023-01-12T07:01:26.962Z,85.98
2023-01-12T07:03:54.293Z,86.98
2023-01-12T07:06:24.185Z,85.78
2023-01-12T07:08:51.236Z,86.55
2023-01-12T07:11:18.370Z,86.42
2023-01-12T07:13:45.490Z,85.65
2023-01-12T07:16:12.940Z,86.29
2023-01-12T07:18:40.058Z,85.68
2023-01-12T07:21:13.953Z,86.01
2023-01-12T07:23:44.148Z,85.76
2023-01-12T07:26:12.177Z,86.68
2023-01-12T07:28:40.365Z,85.98
2023-01-12T07:31:07.810Z,86.68
2023-01-12T07:33:36.730Z,86.23
2023-01-12T07:36:04.888Z,86.13
2023-01-12T07:38:32.780Z,85.97
2023-01-12T07:41:05.137Z,85.77
2023-01-12T07:43:35.952Z,86.57
2023-01-12T07:46:03.160Z,86.28
2023-01-12T07:48:30.755Z,86.27
2023-01-12T07:50:59.465Z,86.79
2023-01-12T07:53:26.519Z,85.82
2023-01-12T07:55:53.634Z,86.89
2023-01-12T07:58:21.180Z,86.65
2023-01-12T08:00:48.212Z,87.49
2023-01-12T08:03:15.380Z,86.70
2023-01-12T08:05:42.818Z,87.52
2023-01-12T08:08:10.431Z,87.27
2023-01-12T08:10:37.854Z,87.05
2023-01-12T08:13:04.910Z,87.16
2023-01-12T08:15:40.228Z,86.94
2023-01-12T08:18:36.852Z,87.33
2023-01-12T08:21:11.680Z,86.18
2023-01-12T08:23:56.280Z,87.23
2023-01-12T08:26:31.960Z,85.92
2023-01-12T08:29:34.870Z,86.58
2023-01-12T08:34:42.084Z,86.31
2023-01-12T08:37:16.472Z,86.55
2023-01-12T08:39:43.745Z,85.45
2023-01-12T08:42:11.277Z,85.54
2023-01-12T08:44:38.718Z,85.79
2023-01-12T08:47:19.162Z,85.64
2023-01-12T08:49:48.298Z,84.59
2023-01-12T08:52:16.626Z,85.31
2023-01-12T08:54:44.164Z,84.54
2023-01-12T08:57:11.451Z,84.77
2023-01-12T08:59:38.699Z,85.63
2023-01-12T09:02:06.005Z,85.02
2023-01-12T09:04:39.577Z,84.89
2023-01-12T09:07:13.530Z,85.48
2023-01-12T09:09:40.655Z,84.43
2023-01-12T09:12:07.875Z,84.45
2023-01-12T09:14:39.162Z,85.07
2023-01-12T09:17:07.667Z,84.22
2023-01-12T09:19:38.031Z,85.10
2023-01-12T09:22:05.288Z,84.33
2023-01-12T09:24:32.325Z,83.96
2023-01-12T09:27:00.179Z,84.07
2023-01-12T09:29:27.641Z,83.58
2023-01-12T09:31:56.297Z,84.33
2023-01-12T09:34:23.431Z,83.51
2023-01-12T09:36:53.538Z,83.19
2023-01-12T09:39:27.640Z,82.94
2023-01-12T09:42:16.222Z,83.24
2023-01-12T09:45:09.075Z,83.96
2023-01-12T09:47:40.609Z,84.12
2023-01-12T09:50:32.686Z,83.04
2023-01-12T09:53:27.614Z,83.85
2023-01-12T09:56:43.663Z,82.57
2023-01-12T09:59:51.591Z,83.07
2023-01-12T10:02:18.859Z,83.12
2023-01-12T10:04:49.684Z,82.99
2023-01-12T10:07:18.489Z,82.78
2023-01-12T10:09:46.280Z,81.61
2023-01-12T10:12:31.161Z,82.07
2023-01-12T10:15:31.054Z,81.83
2023-01-12T10:18:33.256Z,82.38
2023-01-12T10:21:00.952Z,82.25
2023-01-12T10:23:28.514Z,81.45
2023-01-12T10:26:24.314Z,81.47
2023-01-12T10:28:55.514Z,81.05
2023-01-12T10:31:27.012Z,81.94
2023-01-12T10:34:10.133Z,81.28
2023-01-12T10:36:49.129Z,81.49
2023-01-12T10:39:33.838Z,80.79
2023-01-12T10:42:43.123Z,81.43
2023-01-12T10:45:26.988Z,80.74
2023-01-12T10:47:56.235Z,81.19
2023-01-12T10:50:33.038Z,80.80
2023-01-12T10:53:17.468Z,80.82
2023-01-12T10:55:45.392Z,81.56
2023-01-12T10:58:29.425Z,80.72
2023-01-12T11:00:57.556Z,81.01
2023-01-12T11:03:42.051Z,81.53
2023-01-12T11:06:29.194Z,81.84
2023-01-12T11:09:17.493Z,82.79
2023-01-12T11:11:47.474Z,83.37
2023-01-12T11:14:37.152Z,83.99
2023-01-12T11:17:26.639Z,84.47
2023-01-12T11:19:57.479Z,84.42
2023-01-12T11:22:37.295Z,84.75
2023-01-12T11:25:26.612Z,85.28
2023-01-12T11:28:10.712Z,85.57
2023-01-12T11:30:51.769Z,86.25
2023-01-12T11:33:47.421Z,86.62
2023-01-12T11:36:31.109Z,86.37
2023-01-12T11:39:12.627Z,86.19
2023-01-12T11:42:14.151Z,87.14
2023-01-12T11:45:14.657Z,87.13
2023-01-12T11:48:23.092Z,88.05
2023-01-12T11:50:53.405Z,88.70
2023-01-12T11:53:24.135Z,88.04
2023-01-12T11:56:35.987Z,88.23
2023-01-12T11:59:21.014Z,88.44
2023-01-12T12:02:39.319Z,88.34
2023-01-12T12:05:49.401Z,87.51
2023-01-12T12:09:10.493Z,87.37
2023-01-12T12:12:02.115Z,86.79
2023-01-12T12:14:57.302Z,87.09
2023-01-12T12:18:09.634Z,86.79
2023-01-12T12:21:30.058Z,86.43
2023-01-12T12:24:44.723Z,86.33
2023-01-12T12:27:48.875Z,86.30
2023-01-12T12:30:40.459Z,86.66
2023-01-12T12:33:57.061Z,86.19
2023-01-12T12:36:49.505Z,86.22
2023-01-12T12:40:02.347Z,85.36
2023-01-12T12:43:10.053Z,85.35
2023-01-12T12:46:12.577Z,85.12
2023-01-12T12:49:04.871Z,84.08
2023-01-12T12:51:35.389Z,84.34
2023-01-12T12:54:10.783Z,84.03
2023-01-12T12:56:38.825Z,83.70
2023-01-12T12:59:06.263Z,83.49
2023-01-12T13:01:35.468Z,84.04
2023-01-12T13:04:08.362Z,83.76
2023-01-12T13:06:49.502Z,84.09
2023-01-12T13:09:16.507Z,82.99
2023-01-12T13:12:19.009Z,83.38
2023-01-12T13:15:19.696Z,82.46
2023-01-12T13:17:49.576Z,83.24
2023-01-12T13:20:25.711Z,82.98
2023-01-12T13:22:53.765Z,82.85
2023-01-12T13:25:24.201Z,82.75
2023-01-12T13:28:00.363Z,83.04
2023-01-12T13:30:29.987Z,83.69
2023-01-12T13:33:24.154Z,83.46
2023-01-12T13:35:50.968Z,82.70
2023-01-12T13:38:45.223Z,82.84
2023-01-12T13:41:38.472Z,82.56
2023-01-12T13:44:14.875Z,82.64
2023-01-12T13:46:51.322Z,83.17
2023-01-12T13:49:57.469Z,83.35
2023-01-12T13:52:37.154Z,82.56
2023-01-12T13:55:22.904Z,82.85
2023-01-12T13:58:16.862Z,83.05
2023-01-12T14:01:03.536Z,83.53
2023-01-12T14:04:20.385Z,82.92
2023-01-12T14:07:09.161Z,83.51
2023-01-12T14:10:25.721Z,83.08
2023-01-12T14:13:52.215Z,83.47
2023-01-12T14:16:37.732Z,83.11
2023-01-12T14:19:28.804Z,83.68
2023-01-12T14:22:04.837Z,83.70
2023-01-12T14:24:43.377Z,83.16
2023-01-12T14:27:27.355Z,83.53
2023-01-12T14:29:55.028Z,83.01
2023-01-12T14:32:33.921Z,82.82
2023-01-12T14:35:01.201Z,83.04
2023-01-12T14:37:40.613Z,83.32
2023-01-12T14:40:31.467Z,83.18
2023-01-12T14:43:19.700Z,82.82
2023-01-12T14:46:21.145Z,83.45
2023-01-12T14:49:17.386Z,83.43
2023-01-12T14:52:15.790Z,83.41
2023-01-12T14:54:47.129Z,83.29
2023-01-12T14:57:36.501Z,83.80
2023-01-12T15:00:05.103Z,83.98
2023-01-12T15:02:41.993Z,83.01
2023-01-12T15:05:26.863Z,82.89
2023-01-12T15:08:08.113Z,83.30
2023-01-12T15:10:42.321Z,83.46
2023-01-12T15:13:35.321Z,83.70
2023-01-12T15:16:25.240Z,83.72
2023-01-12T15:19:11.019Z,83.52
2023-01-12T15:21:58.626Z,83.24
2023-01-12T15:24:52.850Z,82.98
2023-01-12T15:27:24.370Z,83.54
2023-01-12T15:29:51.917Z,83.68
2023-01-12T15:32:46.383Z,83.50
2023-01-12T15:35:23.624Z,83.75
2023-01-12T15:37:55.176Z,83.83
2023-01-12T15:40:24.746Z,83.33
2023-01-12T15:42:56.157Z,83.32
2023-01-12T15:45:40.757Z,83.51
2023-01-12T15:48:10.874Z,83.08
2023-01-12T15:50:42.945Z,83.04
2023-01-12T15:53:24.153Z,83.55
2023-01-12T15:55:52.676Z,83.60
2023-01-12T15:58:20.063Z,83.52
2023-01-12T16:00:55.524Z,83.38
2023-01-12T16:03:54.507Z,83.55
2023-01-12T16:06:09.672Z,83.19
2023-01-12T16:08:36.973Z,83.68
2023-01-12T16:11:14.242Z,83.38
2023-01-12T16:13:41.947Z,83.96
2023-01-12T16:16:16.815Z,83.51
2023-01-12T16:18:44.642Z,83.28
2023-01-12T16:21:22.597Z,83.00
2023-01-12T16:23:50.244Z,83.17
2023-01-12T16:26:28.263Z,82.89
2023-01-12T16:28:57.678Z,83.07
2023-01-12T16:31:25.504Z,83.21
2023-01-12T16:33:55.775Z,83.57
2023-01-12T16:36:28.556Z,83.37
2023-01-12T16:38:58.622Z,83.68
2023-01-12T16:41:25.879Z,83.28
2023-01-12T16:43:54.500Z,83.98
2023-01-12T16:46:21.601Z,83.84
2023-01-12T16:48:48.694Z,83.54
2023-01-12T16:51:18.661Z,83.85
2023-01-12T16:53:47.292Z,83.59
2023-01-12T16:56:16.416Z,83.64
2023-01-12T16:58:48.189Z,83.40
2023-01-12T17:01:24.679Z,83.84
2023-01-12T17:03:57.483Z,83.92
2023-01-12T17:06:27.660Z,84.03
2023-01-12T17:08:55.816Z,84.32
2023-01-12T17:11:24.864Z,83.96
2023-01-12T17:13:55.930Z,84.78
2023-01-12T17:16:27.502Z,83.91
2023-01-12T17:18:55.029Z,83.86
2023-01-12T17:21:22.702Z,84.02
2023-01-12T17:23:50.042Z,84.12
2023-01-12T17:26:21.418Z,84.81
2023-01-12T17:28:48.537Z,85.20
2023-01-12T17:31:21.020Z,85.12
2023-01-12T17:33:48.443Z,85.16
2023-01-12T17:36:17.031Z,84.82
2023-01-12T17:38:44.363Z,85.16
2023-01-12T17:41:36.984Z,85.13
2023-01-12T17:44:07.000Z,84.90
2023-01-12T17:46:34.911Z,84.50
2023-01-12T17:49:07.068Z,85.06
2023-01-12T17:51:43.050Z,84.80
2023-01-12T17:54:15.835Z,84.47
2023-01-12T17:56:46.221Z,84.52
2023-01-12T17:59:20.874Z,84.75
2023-01-12T18:01:52.063Z,84.60
2023-01-12T18:04:19.539Z,84.37
2023-01-12T18:06:46.586Z,84.54
2023-01-12T18:09:14.284Z,84.46
2023-01-12T18:11:47.915Z,84.61
2023-01-12T18:14:15.250Z,84.68
2023-01-12T18:16:42.579Z,85.18
2023-01-12T18:19:11.351Z,85.14
2023-01-12T18:21:41.773Z,85.20
2023-01-12T18:24:09.043Z,85.03
2023-01-12T18:26:36.346Z,85.00
2023-01-12T18:29:06.195Z,84.96
2023-01-12T18:31:38.006Z,84.96
2023-01-12T18:34:10.862Z,84.83
2023-01-12T18:36:41.073Z,84.87
2023-01-12T18:39:20.644Z,84.85
2023-01-12T18:42:08.640Z,84.71
2023-01-12T18:44:38.004Z,84.34
2023-01-12T18:47:24.037Z,84.61
2023-01-12T18:49:53.723Z,84.86
2023-01-12T18:52:39.234Z,84.81
2023-01-12T18:55:07.264Z,85.05
2023-01-12T18:57:35.103Z,84.62
2023-01-12T19:00:14.032Z,84.55
2023-01-12T19:02:41.819Z,84.49
2023-01-12T19:05:42.558Z,84.23
2023-01-12T19:08:30.394Z,83.89
2023-01-12T19:11:11.852Z,83.89
2023-01-12T19:13:58.287Z,84.10
2023-01-12T19:17:01.688Z,83.53
2023-01-12T19:19:35.502Z,83.96
2023-01-12T19:22:23.588Z,83.89
2023-01-12T19:25:15.001Z,83.44
2023-01-12T19:28:00.804Z,83.90
2023-01-12T19:30:36.419Z,83.54
2023-01-12T19:33:06.533Z,83.49
2023-01-12T19:35:33.659Z,83.55
2023-01-12T19:38:03.989Z,83.16
2023-01-12T19:40:43.973Z,84.01
2023-01-12T19:43:20.868Z,83.82
2023-01-12T19:45:58.950Z,83.78
2023-01-12T19:48:26.868Z,83.49
2023-01-12T19:50:54.983Z,83.31
2023-01-12T19:53:30.401Z,83.25
2023-01-12T19:55:57.566Z,83.27
2023-01-12T19:58:26.746Z,83.25
2023-01-12T20:00:55.944Z,83.56
2023-01-12T20:03:24.448Z,83.28
2023-01-12T20:05:53.011Z,84.36
2023-01-12T20:08:24.709Z,85.15
2023-01-12T20:11:01.993Z,85.78
2023-01-12T20:13:30.490Z,86.17
2023-01-12T20:15:57.958Z,87.03
2023-01-12T20:18:25.221Z,87.67
2023-01-12T20:20:58.587Z,87.86
2023-01-12T20:23:25.882Z,88.44
2023-01-12T20:25:53.167Z,88.49
2023-01-12T20:28:20.284Z,88.93
2023-01-12T20:30:47.645Z,89.77
2023-01-12T20:33:14.713Z,90.51
2023-01-12T20:35:47.998Z,90.03
2023-01-12T20:38:16.886Z,90.89
2023-01-12T20:40:53.406Z,90.44
2023-01-12T20:43:22.800Z,90.74
2023-01-12T20:45:50.115Z,91.41
2023-01-12T20:48:26.309Z,91.60
2023-01-12T20:50:55.123Z,91.94
2023-01-12T20:53:23.767Z,91.74
2023-01-12T20:55:51.678Z,91.91
2023-01-12T20:58:19.772Z,92.22
2023-01-12T21:00:50.291Z,91.97
2023-01-12T21:03:20.961Z,92.42
2023-01-12T21:05:48.886Z,92.67
2023-01-12T21:08:18.309Z,92.32
2023-01-12T21:10:52.215Z,92.00
2023-01-12T21:13:21.021Z,92.54
2023-01-12T21:15:48.103Z,92.21
2023-01-12T21:18:15.165Z,93.29
2023-01-12T21:20:43.614Z,92.85
2023-01-12T21:23:11.479Z,93.18
2023-01-12T21:25:46.418Z,92.77
2023-01-12T21:28:14.262Z,93.59
2023-01-12T21:30:41.449Z,93.00
2023-01-12T21:33:09.033Z,93.56
2023-01-12T21:35:36.961Z,93.66
2023-01-12T21:38:04.293Z,92.94
2023-01-12T21:40:35.360Z,93.34
2023-01-12T21:43:08.532Z,93.84
2023-01-12T21:45:45.594Z,93.84
2023-01-12T21:48:15.814Z,93.44
2023-01-12T21:50:43.838Z,93.42
2023-01-12T21:53:23.483Z,92.96
2023-01-12T21:55:57.748Z,93.27
2023-01-12T21:58:26.863Z,94.06
2023-01-12T22:00:55.201Z,94.38
2023-01-12T22:03:27.494Z,95.10
2023-01-12T22:05:55.576Z,95.92
2023-01-12T22:08:23.578Z,96.11
2023-01-12T22:10:50.570Z,96.91
2023-01-12T22:13:18.074Z,96.73
2023-01-12T22:15:48.297Z,97.24
2023-01-12T22:18:15.316Z,97.08
2023-01-12T22:20:42.740Z,97.22
2023-01-12T22:23:13.024Z,97.41
2023-01-12T22:25:40.324Z,97.72
2023-01-12T22:28:07.343Z,97.52
2023-01-12T22:30:34.330Z,97.80
2023-01-12T22:33:01.354Z,98.13
2023-01-12T22:35:28.360Z,97.99
2023-01-12T22:37:55.772Z,98.14
2023-01-12T22:40:23.039Z,98.42
2023-01-12T22:43:08.682Z,98.15
2023-01-12T22:45:38.147Z,98.36
2023-01-12T22:48:06.091Z,98.45
2023-01-12T22:50:33.511Z,98.09
2023-01-12T22:53:00.635Z,97.94
2023-01-12T22:55:27.813Z,98.54
2023-01-12T22:57:54.881Z,97.95
2023-01-12T23:00:22.389Z,98.32
2023-01-12T23:03:02.388Z,98.37
2023-01-12T23:05:55.934Z,98.27
2023-01-12T23:08:24.320Z,98.09
2023-01-12T23:10:52.161Z,98.12
2023-01-12T23:13:21.364Z,97.84
2023-01-12T23:15:56.755Z,98.68
2023-01-12T23:18:29.884Z,97.90
2023-01-12T23:21:26.483Z,98.19
2023-01-12T23:24:00.764Z,97.90
2023-01-12T23:26:32.699Z,97.94
2023-01-12T23:29:02.891Z,97.96
2023-01-12T23:31:33.570Z,98.75
2023-01-12T23:34:01.419Z,98.13
2023-01-12T23:36:31.008Z,98.84
2023-01-12T23:39:02.865Z,98.01
2023-01-12T23:41:33.995Z,98.71
2023-01-12T23:44:04.958Z,98.06
2023-01-12T23:46:40.230Z,98.21
2023-01-12T23:49:07.320Z,97.94
2023-01-12T23:51:36.246Z,97.89
2023-01-12T23:54:03.661Z,98.11
2023-01-12T23:56:33.215Z,97.53
2023-01-12T23:59:00.705Z,96.22
